Time;durP1;ratioP1;P1;durP2;ratioP2;P2;SDS_P1;SDS_P2;PMS_P1;PMS_P2;Temp;Humidity;BMP_temperature;BMP_pressure;BME280_temperature;BME280_humidity;BME280_pressure;Samples;Min_cycle;Max_cycle;Signal;HPM_P1;HPM_P2
2023/03/28 00:02:16;;;;;;;5.63;2.70;;;3.30;1.00;;;;;;5025195;28;20668;-84
2023/03/28 00:04:48;;;;;;;9.63;3.38;;;3.30;1.00;;;;;;5028056;28;20190;-82
2023/03/28 00:07:19;;;;;;;12.02;2.78;;;3.20;1.00;;;;;;5034571;28;20537;-85
2023/03/28 00:09:47;;;;;;;4.57;2.40;;;3.20;1.00;;;;;;5028961;28;20182;-83
2023/03/28 00:12:21;;;;;;;6.97;3.17;;;3.20;1.00;;;;;;5044080;28;21221;-81
2023/03/28 00:15:00;;;;;;;8.85;3.05;;;3.20;1.00;;;;;;5040133;28;20206;-81
2023/03/28 00:17:25;;;;;;;10.30;3.63;;;3.10;1.00;;;;;;5016608;28;20237;-82
2023/03/28 00:19:53;;;;;;;12.40;3.53;;;3.10;1.00;;;;;;5043951;28;20202;-81
2023/03/28 00:22:24;;;;;;;11.70;5.82;;;3.00;1.00;;;;;;5032810;28;20194;-81
2023/03/28 00:24:52;;;;;;;10.50;6.57;;;3.00;1.00;;;;;;5017215;28;20206;-81
2023/03/28 00:27:36;;;;;;;13.38;5.95;;;3.00;1.00;;;;;;5035267;28;20229;-80
2023/03/28 00:30:15;;;;;;;9.25;5.20;;;3.00;1.00;;;;;;5028305;28;20177;-81
2023/03/28 00:32:49;;;;;;;9.05;4.68;;;2.90;1.00;;;;;;5026527;28;20201;-81
2023/03/28 00:35:15;;;;;;;9.50;4.63;;;2.90;1.00;;;;;;5006690;28;20185;-81
2023/03/28 00:37:41;;;;;;;13.70;4.60;;;2.90;1.00;;;;;;5037697;28;20180;-82
2023/03/28 00:40:18;;;;;;;10.80;4.43;;;2.90;1.00;;;;;;5037610;28;20193;-84
2023/03/28 00:42:55;;;;;;;11.02;4.45;;;2.90;1.00;;;;;;5020418;28;20464;-81
2023/03/28 00:45:25;;;;;;;8.93;4.10;;;2.80;1.00;;;;;;5037887;28;20170;-82
2023/03/28 00:48:11;;;;;;;7.07;3.80;;;2.80;1.00;;;;;;5022833;28;20269;-83
2023/03/28 00:50:47;;;;;;;8.07;3.60;;;2.80;1.00;;;;;;5013948;28;20166;-80
2023/03/28 00:53:20;;;;;;;8.25;3.95;;;2.80;1.00;;;;;;5037409;28;20208;-80
2023/03/28 00:56:03;;;;;;;11.50;3.78;;;2.80;1.00;;;;;;5040663;28;20186;-84
2023/03/28 00:58:49;;;;;;;7.57;3.60;;;2.80;1.00;;;;;;5015925;28;20205;-81
2023/03/28 01:01:20;;;;;;;14.45;4.20;;;2.70;1.00;;;;;;5025559;28;20178;-81
2023/03/28 01:04:04;;;;;;;8.77;3.33;;;2.70;1.00;;;;;;5039489;28;20245;-82
2023/03/28 01:06:49;;;;;;;7.90;4.80;;;2.70;1.00;;;;;;5019831;28;20178;-82
2023/03/28 01:09:27;;;;;;;15.68;5.22;;;2.70;3.30;;;;;;5041253;28;20189;-85
2023/03/28 01:11:55;;;;;;;12.85;4.20;;;2.60;12.20;;;;;;5042262;28;20186;-81
2023/03/28 01:14:28;;;;;;;7.40;4.22;;;2.60;1.00;;;;;;5041537;28;20233;-85
2023/03/28 01:17:17;;;;;;;10.20;4.15;;;2.60;36.90;;;;;;5034695;28;20173;-81
2023/03/28 01:20:28;;;;;;;7.25;4.40;;;2.50;32.90;;;;;;5041234;28;20190;-82
2023/03/28 01:23:49;;;;;;;6.72;3.70;;;2.50;43.00;;;;;;4950107;29;20217;-82
2023/03/28 01:26:51;;;;;;;14.23;3.90;;;2.40;99.90;;;;;;4987859;28;20184;-84
2023/03/28 01:30:00;;;;;;;11.02;3.65;;;2.40;99.90;;;;;;5024771;28;20242;-81
2023/03/28 01:32:53;;;;;;;10.07;3.83;;;2.40;99.90;;;;;;5012749;28;20280;-80
2023/03/28 01:36:01;;;;;;;4.25;2.70;;;2.30;99.90;;;;;;5033850;28;20185;-81
2023/03/28 01:39:11;;;;;;;12.18;4.20;;;2.30;99.90;;;;;;5014146;28;20174;-83
2023/03/28 01:42:08;;;;;;;9.98;3.72;;;2.30;99.90;;;;;;5008530;28;20541;-82
2023/03/28 01:44:51;;;;;;;9.57;3.53;;;2.30;99.90;;;;;;5040591;28;20252;-82
2023/03/28 01:47:36;;;;;;;6.55;3.63;;;2.20;1.00;;;;;;5029956;28;20238;-83
2023/03/28 01:50:18;;;;;;;11.27;3.53;;;2.20;1.00;;;;;;5024702;28;20179;-81
2023/03/28 01:53:04;;;;;;;9.30;3.95;;;2.20;1.00;;;;;;5018732;28;20650;-82
2023/03/28 01:55:52;;;;;;;10.65;4.50;;;2.20;1.00;;;;;;5023958;28;20178;-83
2023/03/28 01:58:59;;;;;;;;;;;;;;;;;;;;;
2023/03/28 02:02:01;;;;;;;14.80;4.00;;;2.10;1.00;;;;;;5044741;28;20257;-82
2023/03/28 02:04:29;;;;;;;4.93;2.85;;;2.10;1.00;;;;;;5021720;28;20202;-83
2023/03/28 02:06:59;;;;;;;6.32;3.22;;;2.10;1.00;;;;;;5028056;28;20225;-82
2023/03/28 02:09:26;;;;;;;8.20;3.60;;;2.10;1.00;;;;;;5036193;28;20181;-82
2023/03/28 02:12:10;;;;;;;7.55;2.90;;;2.10;1.00;;;;;;5032085;28;20177;-82
2023/03/28 02:14:42;;;;;;;7.53;3.05;;;2.10;13.40;;;;;;5039846;28;20257;-82
2023/03/28 02:17:55;;;;;;;5.53;3.20;;;2.10;10.20;;;;;;5046285;28;20166;-83
2023/03/28 02:20:47;;;;;;;14.00;4.00;;;2.10;15.50;;;;;;5042765;28;20178;-84
2023/03/28 02:23:54;;;;;;;;;;;;;;;;;;;;;
2023/03/28 02:26:39;;;;;;;;;;;;;;;;;;;;;
2023/03/28 02:29:38;;;;;;;10.80;3.90;;;2.00;1.00;;;;;;5041441;28;20255;-85
2023/03/28 02:32:15;;;;;;;9.80;3.50;;;2.00;55.10;;;;;;5040920;28;20213;-83
2023/03/28 02:34:47;;;;;;;5.35;3.10;;;1.90;99.90;;;;;;5027715;28;20213;-83
2023/03/28 02:37:17;;;;;;;9.02;3.30;;;1.90;99.90;;;;;;5021168;28;20547;-82
2023/03/28 02:40:01;;;;;;;11.63;5.97;;;1.90;99.90;;;;;;5030452;28;20177;-82
2023/03/28 02:43:18;;;;;;;7.32;3.47;;;1.90;99.90;;;;;;5018495;28;20202;-81
2023/03/28 02:45:55;;;;;;;13.48;4.10;;;1.90;99.90;;;;;;5006872;28;20190;-84
2023/03/28 02:48:41;;;;;;;8.60;3.40;;;1.90;99.90;;;;;;5040277;28;20182;-84
2023/03/28 02:51:39;;;;;;;11.43;4.70;;;1.90;99.90;;;;;;5026922;28;20181;-82
2023/03/28 02:54:16;;;;;;;9.00;4.45;;;1.90;99.90;;;;;;4991381;28;20218;-83
2023/03/28 02:57:02;;;;;;;6.07;3.80;;;1.80;1.00;;;;;;5045502;28;20185;-83
2023/03/28 03:00:25;;;;;;;7.50;3.40;;;1.80;1.00;;;;;;5021329;28;20182;-80
2023/03/28 03:03:07;;;;;;;9.65;3.90;;;1.80;1.00;;;;;;4943939;29;20198;-82
2023/03/28 03:05:49;;;;;;;11.45;4.30;;;1.80;99.90;;;;;;5024326;28;20524;-81
2023/03/28 03:08:15;;;;;;;8.70;4.18;;;1.80;99.90;;;;;;5019607;28;20179;-81
2023/03/28 03:10:41;;;;;;;10.27;4.65;;;1.80;99.90;;;;;;5027678;28;20178;-83
2023/03/28 03:13:17;;;;;;;8.13;3.83;;;1.80;99.90;;;;;;5023836;28;20194;-81
2023/03/28 03:15:45;;;;;;;13.52;4.57;;;1.80;99.90;;;;;;5040704;28;20197;-81
2023/03/28 03:18:33;;;;;;;8.80;4.03;;;1.80;99.90;;;;;;5025439;28;20174;-82
2023/03/28 03:21:04;;;;;;;9.93;3.83;;;1.80;99.90;;;;;;5045201;28;20183;-84
2023/03/28 03:23:35;;;;;;;7.72;4.05;;;1.80;99.90;;;;;;5044721;28;20198;-82
2023/03/28 03:26:21;;;;;;;8.88;4.00;;;1.70;99.90;;;;;;5043089;28;20260;-82
2023/03/28 03:28:49;;;;;;;13.10;4.70;;;1.70;99.90;;;;;;5027201;28;20194;-84
2023/03/28 03:31:20;;;;;;;8.57;3.90;;;1.70;99.90;;;;;;5037371;28;20177;-82
2023/03/28 03:33:46;;;;;;;9.65;4.07;;;1.70;99.90;;;;;;5027747;28;20209;-82
2023/03/28 03:36:16;;;;;;;8.23;4.75;;;1.70;99.90;;;;;;5043063;28;20170;-82
2023/03/28 03:38:42;;;;;;;6.97;4.45;;;1.70;99.90;;;;;;5025385;28;20208;-82
2023/03/28 03:41:24;;;;;;;8.50;4.30;;;1.60;99.90;;;;;;5028662;28;20285;-83
2023/03/28 03:43:58;;;;;;;9.30;4.85;;;1.60;99.90;;;;;;5031204;28;20216;-82
2023/03/28 03:46:26;;;;;;;7.65;4.65;;;1.60;99.90;;;;;;5043547;28;20253;-81
2023/03/28 03:48:55;;;;;;;7.50;4.68;;;1.60;99.90;;;;;;5045370;28;20186;-82
2023/03/28 03:51:26;;;;;;;9.27;4.68;;;1.50;99.90;;;;;;5023324;28;20183;-83
2023/03/28 03:54:01;;;;;;;8.13;4.72;;;1.50;1.00;;;;;;5018501;28;20743;-83
2023/03/28 03:56:27;;;;;;;15.27;5.13;;;1.50;1.00;;;;;;5022467;28;20181;-81
2023/03/28 03:58:53;;;;;;;14.47;4.60;;;1.50;1.00;;;;;;5042817;28;20313;-82
2023/03/28 04:01:28;;;;;;;;;;;;;;;;;;;;;
2023/03/28 04:03:55;;;;;;;15.65;4.20;;;1.50;1.00;;;;;;5044826;28;20284;-81
2023/03/28 04:06:23;;;;;;;14.82;4.25;;;1.50;1.00;;;;;;5045913;28;20186;-83
2023/03/28 04:08:52;;;;;;;11.60;4.03;;;1.40;1.00;;;;;;5043141;28;20182;-84
2023/03/28 04:11:52;;;;;;;9.63;4.40;;;1.40;1.00;;;;;;5036649;28;20178;-82
2023/03/28 04:14:58;;;;;;;;;;;;;;;;;;;;;
2023/03/28 04:20:22;;;;;;;;;;;;;;;;;;;;;
2023/03/28 04:23:10;;;;;;;8.93;4.13;;;1.40;1.00;;;;;;5042661;28;20293;-81
2023/03/28 04:25:41;;;;;;;10.90;3.90;;;1.30;1.00;;;;;;5022227;28;20181;-80
2023/03/28 04:28:25;;;;;;;7.50;4.00;;;1.30;1.00;;;;;;5021517;28;20273;-82
2023/03/28 04:30:57;;;;;;;16.30;4.82;;;1.30;2.80;;;;;;5039328;28;20182;-85
2023/03/28 04:33:33;;;;;;;5.93;3.83;;;1.30;28.10;;;;;;5029182;28;20218;-81
2023/03/28 04:36:01;;;;;;;7.10;4.63;;;1.30;30.70;;;;;;5033541;28;20226;-82
2023/03/28 04:38:35;;;;;;;11.18;4.43;;;1.30;32.00;;;;;;5031060;28;20198;-83
2023/03/28 04:41:08;;;;;;;9.07;3.60;;;1.30;35.10;;;;;;5023280;28;20201;-83
2023/03/28 04:43:36;;;;;;;9.02;4.10;;;1.30;29.80;;;;;;5039627;28;20262;-81
2023/03/28 04:46:12;;;;;;;12.25;6.00;;;1.30;1.00;;;;;;5039303;28;20856;-81
2023/03/28 04:48:56;;;;;;;8.60;4.00;;;1.30;1.00;;;;;;5019859;28;20182;-83
2023/03/28 04:51:41;;;;;;;6.78;3.90;;;1.30;1.00;;;;;;5035764;28;20247;-82
2023/03/28 04:54:17;;;;;;;13.68;4.88;;;1.30;1.00;;;;;;5023159;28;20213;-80
2023/03/28 04:56:52;;;;;;;8.32;4.03;;;1.30;1.00;;;;;;5020397;28;20212;-82
2023/03/28 04:59:18;;;;;;;10.05;4.55;;;1.30;1.00;;;;;;5019110;28;20609;-82
2023/03/28 05:01:54;;;;;;;12.05;4.43;;;1.30;1.00;;;;;;5027266;28;20189;-81
2023/03/28 05:04:33;;;;;;;13.75;4.70;;;1.30;1.00;;;;;;5011329;28;20210;-81
2023/03/28 05:07:29;;;;;;;9.55;3.83;;;1.40;1.00;;;;;;5044605;28;20189;-81
2023/03/28 05:10:02;;;;;;;9.57;4.45;;;1.40;1.00;;;;;;5023753;28;20190;-81
2023/03/28 05:12:35;;;;;;;9.75;5.10;;;1.40;1.00;;;;;;5024712;28;20213;-80
2023/03/28 05:15:00;;;;;;;7.13;4.30;;;1.40;1.00;;;;;;5038251;28;20225;-81
2023/03/28 05:17:26;;;;;;;11.70;4.63;;;1.40;1.00;;;;;;5022874;28;20185;-80
2023/03/28 05:20:14;;;;;;;10.13;4.10;;;1.40;1.00;;;;;;5016622;28;20183;-82
2023/03/28 05:23:00;;;;;;;7.95;4.03;;;1.50;1.00;;;;;;5018845;28;20206;-81
2023/03/28 05:25:39;;;;;;;13.75;5.45;;;1.50;99.90;;;;;;5038956;28;20552;-83
2023/03/28 05:28:08;;;;;;;8.77;4.95;;;1.50;99.90;;;;;;5016680;28;20274;-82
2023/03/28 05:30:44;;;;;;;8.82;4.30;;;1.50;99.90;;;;;;5034287;28;20192;-81
2023/03/28 05:33:24;;;;;;;14.68;4.88;;;1.60;99.90;;;;;;5041542;28;20220;-84
2023/03/28 05:35:50;;;;;;;8.40;4.00;;;1.60;99.90;;;;;;5035832;28;20222;-82
2023/03/28 05:38:15;;;;;;;8.50;4.33;;;1.70;44.20;;;;;;5040125;28;20198;-84
2023/03/28 05:40:53;;;;;;;12.63;4.70;;;1.70;1.00;;;;;;5043753;28;20192;-82
2023/03/28 05:43:29;;;;;;;8.70;5.88;;;1.80;1.00;;;;;;5028733;28;20224;-82
2023/03/28 05:46:11;;;;;;;15.18;5.25;;;1.90;1.00;;;;;;5046791;28;20245;-84
2023/03/28 05:48:49;;;;;;;;;;;;;;;;;;;;;
2023/03/28 05:51:33;;;;;;;10.25;5.28;;;2.90;99.90;;;;;;5041637;28;20768;-82
2023/03/28 05:54:22;;;;;;;8.40;5.38;;;3.80;1.00;;;;;;5021281;28;20214;-84
2023/03/28 06:00:12;;;;;;;9.27;4.83;;;8.40;1.00;;;;;;5020756;28;20249;-84
2023/03/28 06:21:28;;;;;;;;;;;;;;;;;;;;;
2023/03/28 06:24:29;;;;;;;7.80;4.10;;;26.00;99.90;;;;;;5017932;28;20528;-83
2023/03/28 06:27:14;;;;;;;6.70;4.43;;;27.40;99.90;;;;;;5036149;28;20512;-84
2023/03/28 06:29:40;;;;;;;5.50;4.03;;;28.50;99.90;;;;;;5007560;28;20434;-88
2023/03/28 06:32:20;;;;;;;7.47;4.77;;;29.50;99.90;;;;;;5018616;28;20440;-83
2023/03/28 06:34:46;;;;;;;10.40;6.07;;;30.30;99.90;;;;;;5038207;28;20853;-85
2023/03/28 06:37:15;;;;;;;8.93;6.23;;;29.90;99.90;;;;;;5016015;28;20506;-83
2023/03/28 06:39:53;;;;;;;;;;;;;;;;;;;;;
2023/03/28 06:42:20;;;;;;;8.20;5.50;;;31.10;99.90;;;;;;5041546;28;20560;-85
2023/03/28 06:44:55;;;;;;;10.07;5.30;;;31.90;99.90;;;;;;5026202;28;20494;-85
2023/03/28 06:47:31;;;;;;;6.97;4.83;;;32.40;99.90;;;;;;5024232;28;20512;-82
2023/03/28 06:49:58;;;;;;;7.40;5.30;;;32.90;99.90;;;;;;5041929;28;20412;-84
2023/03/28 06:52:27;;;;;;;8.13;4.33;;;33.50;99.90;;;;;;5022553;28;21082;-83
2023/03/28 06:54:57;;;;;;;8.00;4.07;;;34.60;99.90;;;;;;5038736;28;20457;-83
2023/03/28 06:57:26;;;;;;;6.57;4.17;;;35.50;99.90;;;;;;5023738;28;20440;-83
2023/03/28 06:59:59;;;;;;;7.53;4.37;;;36.30;99.90;;;;;;5037798;28;20444;-85
2023/03/28 07:02:32;;;;;;;8.20;3.90;;;37.30;99.90;;;;;;5034555;23;20581;-84
2023/03/28 07:05:10;;;;;;;6.07;4.00;;;38.20;99.90;;;;;;4998899;28;20475;-84
2023/03/28 07:07:36;;;;;;;6.70;3.73;;;38.40;99.90;;;;;;4986011;28;20428;-83
2023/03/28 07:10:04;;;;;;;8.40;4.57;;;38.20;99.90;;;;;;4970202;28;20506;-84
2023/03/28 07:12:30;;;;;;;5.67;3.50;;;38.10;99.90;;;;;;4980736;28;20439;-84
2023/03/28 07:14:58;;;;;;;6.20;3.43;;;37.80;99.90;;;;;;4954058;28;20459;-84
2023/03/28 07:17:24;;;;;;;6.57;4.10;;;36.60;99.90;;;;;;4970680;28;20188;-83
2023/03/28 07:19:52;;;;;;;9.43;3.80;;;34.50;99.90;;;;;;4969658;28;20441;-82
2023/03/28 07:22:35;;;;;;;6.27;3.20;;;32.10;99.90;;;;;;4972551;28;20545;-81
2023/03/28 07:25:11;;;;;;;;;;;;;;;;;;;;;
2023/03/28 07:27:37;;;;;;;5.80;3.20;;;28.40;99.90;;;;;;4968363;28;20516;-81
2023/03/28 07:30:04;;;;;;;5.90;3.30;;;28.60;99.90;;;;;;4957192;28;20441;-82
2023/03/28 07:32:37;;;;;;;7.30;3.50;;;30.20;99.90;;;;;;4959003;28;20550;-83
2023/03/28 07:35:04;;;;;;;6.90;3.67;;;32.40;99.90;;;;;;4951942;28;20429;-81
2023/03/28 07:37:32;;;;;;;6.40;3.07;;;34.80;99.90;;;;;;4968669;28;20723;-82
2023/03/28 07:39:57;;;;;;;6.97;3.20;;;36.20;99.90;;;;;;4973400;28;20430;-81
2023/03/28 07:42:26;;;;;;;5.93;3.00;;;37.70;99.90;;;;;;4961034;28;20554;-86
2023/03/28 07:44:55;;;;;;;8.80;3.00;;;38.90;99.90;;;;;;4951496;28;20210;-83
2023/03/28 07:47:30;;;;;;;4.10;2.57;;;39.30;99.90;;;;;;4955329;28;20854;-84
2023/03/28 07:49:56;;;;;;;8.33;3.80;;;39.10;99.90;;;;;;4959882;28;20416;-83
2023/03/28 07:52:32;;;;;;;6.73;2.97;;;38.90;99.90;;;;;;4969464;28;20432;-80
2023/03/28 07:54:57;;;;;;;7.53;3.00;;;38.10;99.90;;;;;;4960517;28;20439;-84
2023/03/28 07:57:26;;;;;;;8.40;3.07;;;38.30;99.90;;;;;;4968501;28;20494;-83
2023/03/28 08:00:01;;;;;;;5.83;2.80;;;38.30;99.90;;;;;;4956978;28;20205;-83
2023/03/28 08:02:29;;;;;;;6.20;3.07;;;37.40;99.90;;;;;;4959326;28;21002;-82
2023/03/28 08:04:54;;;;;;;9.67;3.37;;;37.80;99.90;;;;;;4960724;28;20480;-83
2023/03/28 08:07:27;;;;;;;7.80;2.80;;;37.60;99.90;;;;;;4956551;28;20453;-84
2023/03/28 08:10:06;;;;;;;4.70;2.27;;;37.60;99.90;;;;;;4959445;28;20283;-83
2023/03/28 08:12:44;;;;;;;;;;;;;;;;;;;;;
2023/03/28 08:15:22;;;;;;;9.30;3.27;;;36.90;96.90;;;;;;4965833;28;20486;-85
2023/03/28 08:18:11;;;;;;;4.90;2.60;;;36.80;95.80;;;;;;4969248;28;20438;-85
2023/03/28 08:20:42;;;;;;;5.97;3.00;;;36.90;96.10;;;;;;4977619;28;20452;-84
2023/03/28 08:23:18;;;;;;;5.20;2.27;;;37.30;95.80;;;;;;4959712;28;20465;-84
2023/03/28 08:26:03;;;;;;;;;;;;;;;;;;;;;
2023/03/28 08:28:36;;;;;;;5.70;2.57;;;34.80;90.70;;;;;;4969541;28;20468;-85
2023/03/28 08:31:10;;;;;;;4.00;2.20;;;34.90;91.10;;;;;;4970294;28;20424;-82
2023/03/28 08:33:38;;;;;;;10.07;3.20;;;35.40;91.80;;;;;;4971097;28;20502;-83
2023/03/28 08:36:13;;;;;;;5.50;2.53;;;36.10;92.00;;;;;;4968049;28;20436;-87
2023/03/28 08:39:04;;;;;;;7.33;2.50;;;36.70;92.60;;;;;;4964632;28;20447;-85
2023/03/28 08:41:56;;;;;;;6.53;2.70;;;36.80;92.00;;;;;;4963504;28;20457;-86
2023/03/28 08:44:30;;;;;;;5.40;2.33;;;36.20;90.10;;;;;;4968753;28;20467;-84
2023/03/28 08:47:04;;;;;;;6.17;2.40;;;34.30;83.40;;;;;;4966669;28;20519;-85
2023/03/28 08:49:47;;;;;;;;;;;;;;;;;;;;;
2023/03/28 08:52:16;;;;;;;6.67;2.10;;;32.10;75.00;;;;;;4970378;28;20471;-83
2023/03/28 08:55:14;;;;;;;5.70;2.20;;;32.20;76.00;;;;;;4969751;28;20447;-84
2023/03/28 08:57:42;;;;;;;6.67;2.13;;;32.70;78.40;;;;;;4968528;28;20444;-83
2023/03/28 09:00:30;;;;;;;6.97;2.20;;;33.70;82.20;;;;;;4970573;28;20482;-83
2023/03/28 09:02:57;;;;;;;8.30;2.27;;;34.50;84.60;;;;;;4966713;28;20464;-82
2023/03/28 09:05:45;;;;;;;5.37;1.77;;;35.30;85.60;;;;;;4972857;28;20476;-82
2023/03/28 09:08:22;;;;;;;7.87;1.70;;;35.20;83.90;;;;;;4959885;28;20424;-83
2023/03/28 09:11:24;;;;;;;5.23;2.23;;;35.40;84.40;;;;;;4958527;28;20447;-82
2023/03/28 09:13:59;;;;;;;6.83;2.90;;;35.70;85.00;;;;;;4947549;28;20461;-82
2023/03/28 09:16:42;;;;;;;5.83;2.00;;;36.00;84.10;;;;;;4950521;28;20504;-82
2023/03/28 09:19:27;;;;;;;5.57;2.00;;;36.50;84.70;;;;;;4947934;28;20455;-83
2023/03/28 09:22:01;;;;;;;4.90;1.93;;;36.30;83.10;;;;;;4958311;28;20432;-82
2023/03/28 09:24:54;;;;;;;3.43;1.73;;;36.00;79.10;;;;;;4960027;28;20468;-82
2023/03/28 09:27:28;;;;;;;3.93;1.70;;;35.60;77.20;;;;;;4957879;28;20440;-82
2023/03/28 09:29:59;;;;;;;3.90;1.53;;;32.60;63.90;;;;;;4947251;28;20475;-82
2023/03/28 09:32:36;;;;;;;6.37;1.90;;;31.80;61.80;;;;;;4950566;28;20463;-82
2023/03/28 09:35:09;;;;;;;3.80;1.50;;;31.10;59.90;;;;;;4939305;28;20903;-82
2023/03/28 09:37:56;;;;;;;6.60;2.00;;;30.40;57.90;;;;;;4943933;28;20504;-82
2023/03/28 09:40:29;;;;;;;3.93;1.70;;;29.30;55.20;;;;;;4968709;28;20448;-85
2023/03/28 09:43:04;;;;;;;4.40;1.67;;;28.50;53.70;;;;;;4954117;28;21395;-83
2023/03/28 09:49:12;;;;;;;7.33;2.90;;;26.60;48.20;;;;;;4940407;28;20525;-83
2023/03/28 09:51:42;;;;;;;3.83;1.37;;;25.80;46.30;;;;;;4950320;28;20471;-82
2023/03/28 09:54:29;;;;;;;9.63;3.83;;;25.00;44.40;;;;;;4960921;28;20463;-84
2023/03/28 09:57:06;;;;;;;6.30;2.10;;;24.60;43.60;;;;;;4956340;28;21009;-82
2023/03/28 09:59:45;;;;;;;;;;;;;;;;;;;;;
2023/03/28 10:02:31;;;;;;;4.80;1.83;;;24.30;44.80;;;;;;4943377;28;20504;-81
2023/03/28 10:04:58;;;;;;;4.93;2.03;;;24.50;46.20;;;;;;4950262;28;20478;-82
2023/03/28 10:07:29;;;;;;;3.93;1.70;;;24.30;46.00;;;;;;4953660;28;20452;-85
2023/03/28 10:10:01;;;;;;;4.20;1.63;;;24.20;45.80;;;;;;4953611;28;20544;-82
2023/03/28 10:12:36;;;;;;;2.93;1.70;;;24.00;44.50;;;;;;4952835;28;20458;-84
2023/03/28 10:15:07;;;;;;;5.87;2.03;;;24.00;44.70;;;;;;4945218;28;20444;-82
2023/03/28 10:17:35;;;;;;;7.40;1.73;;;24.10;45.70;;;;;;4948016;28;20502;-84
2023/03/28 10:20:20;;;;;;;2.47;1.30;;;24.10;46.40;;;;;;4958338;28;20443;-85
2023/03/28 10:22:49;;;;;;;6.33;1.67;;;24.10;47.30;;;;;;4958469;28;20464;-84
2023/03/28 10:25:34;;;;;;;2.77;1.27;;;23.80;46.50;;;;;;4953448;28;20525;-85
2023/03/28 10:27:59;;;;;;;2.60;1.30;;;23.70;45.90;;;;;;4955194;28;20440;-83
2023/03/28 10:30:30;;;;;;;4.60;1.53;;;23.50;46.20;;;;;;4948152;28;20440;-84
2023/03/28 10:33:15;;;;;;;3.10;1.30;;;23.30;45.90;;;;;;4949055;28;20211;-83
2023/03/28 10:35:44;;;;;;;2.40;1.10;;;23.10;44.20;;;;;;4951853;28;20456;-83
2023/03/28 10:38:27;;;;;;;;;;;;;;;;;;;;;
2023/03/28 10:41:12;;;;;;;3.30;1.40;;;22.20;41.10;;;;;;4954234;28;20518;-83
2023/03/28 10:43:40;;;;;;;3.37;1.13;;;21.70;40.30;;;;;;4949063;28;20516;-82
2023/03/28 10:46:23;;;;;;;6.53;1.60;;;21.20;37.20;;;;;;4946471;28;20935;-83
2023/03/28 10:48:57;;;;;;;2.87;1.07;;;21.20;37.70;;;;;;4960065;28;20454;-82
2023/03/28 10:51:27;;;;;;;5.10;1.20;;;21.40;38.60;;;;;;4951425;28;20567;-82
2023/03/28 10:54:19;;;;;;;;;;;;;;;;;;;;;
2023/03/28 10:56:58;;;;;;;5.17;1.37;;;22.00;42.00;;;;;;4952501;28;20539;-82
2023/03/28 10:59:57;;;;;;;2.70;1.43;;;22.30;44.40;;;;;;4951772;28;20472;-82
2023/03/28 11:02:50;;;;;;;3.07;1.73;;;22.60;44.30;;;;;;4952968;28;20473;-83
2023/03/28 11:05:28;;;;;;;4.33;1.20;;;22.70;45.00;;;;;;4954524;28;20544;-82
2023/03/28 11:08:21;;;;;;;4.90;1.60;;;22.80;57.60;;;;;;4956308;28;20474;-82
2023/03/28 11:11:05;;;;;;;3.30;1.63;;;22.40;44.10;;;;;;4950715;28;20536;-83
2023/03/28 11:13:50;;;;;;;3.33;2.00;;;22.30;43.60;;;;;;4954234;28;20985;-83
2023/03/28 11:16:42;;;;;;;3.40;1.40;;;22.20;43.70;;;;;;4945930;28;20437;-83
2023/03/28 11:19:36;;;;;;;5.67;1.40;;;21.90;42.40;;;;;;4948544;29;20979;-85
2023/03/28 11:22:28;;;;;;;3.93;1.70;;;21.60;41.20;;;;;;4945890;28;20477;-82
2023/03/28 11:25:20;;;;;;;2.63;1.23;;;21.70;42.40;;;;;;4945162;28;20725;-82
2023/03/28 11:28:15;;;;;;;2.53;1.37;;;21.80;42.80;;;;;;4938083;28;20451;-83
2023/03/28 11:30:42;;;;;;;2.47;1.47;;;22.50;45.60;;;;;;4950351;28;20924;-83
2023/03/28 11:43:19;;;;;;;;;;;;;;;;;;;;;
2023/03/28 11:50:23;;;;;;;2.33;1.20;;;26.40;57.90;;;;;;4939203;29;20461;-85
2023/03/28 11:54:05;;;;;;;;;;;;;;;;;;;;;
2023/03/28 11:57:32;;;;;;;;;;;;;;;;;;;;;
2023/03/28 12:04:01;;;;;;;7.43;1.80;;;25.90;52.20;;;;;;4943966;29;20618;-83
2023/03/28 12:07:00;;;;;;;3.23;1.53;;;25.60;50.50;;;;;;4942851;28;20867;-83
2023/03/28 12:10:01;;;;;;;;;;;;;;;;;;;;;
2023/03/28 12:19:52;;;;;;;6.20;2.10;;;24.90;48.20;;;;;;4887461;28;20436;-87
2023/03/28 12:22:49;;;;;;;4.43;1.70;;;25.10;50.10;;;;;;4962951;28;20502;-89
2023/03/28 12:33:35;;;;;;;4.73;2.30;;;24.40;45.80;;;;;;4924643;29;20458;-83
2023/03/28 12:36:56;;;;;;;7.10;1.67;;;24.60;46.70;;;;;;4984663;28;20446;-83
2023/03/28 12:40:03;;;;;;;4.70;2.30;;;24.50;46.80;;;;;;4989634;28;20481;-82
2023/03/28 12:45:44;;;;;;;4.67;1.50;;;23.00;40.40;;;;;;4980897;28;20526;-84
2023/03/28 12:48:55;;;;;;;5.17;1.50;;;22.10;37.00;;;;;;4987533;28;20438;-83
2023/03/28 12:52:13;;;;;;;3.90;1.70;;;21.50;34.50;;;;;;4947738;28;20454;-85
2023/03/28 12:55:32;;;;;;;5.67;1.67;;;20.70;32.20;;;;;;4988791;28;20419;-82
2023/03/28 12:59:15;;;;;;;6.07;1.80;;;20.10;30.00;;;;;;4992450;28;20441;-83
2023/03/28 13:02:17;;;;;;;3.73;1.60;;;19.70;29.50;;;;;;4976177;28;20547;-83
2023/03/28 13:05:05;;;;;;;8.30;2.00;;;19.40;29.90;;;;;;4989336;28;20455;-82
2023/03/28 13:14:26;;;;;;;4.10;1.57;;;19.60;31.90;;;;;;4964230;28;20443;-84
2023/03/28 13:17:51;;;;;;;3.53;1.80;;;20.50;36.10;;;;;;5004850;28;20425;-83
2023/03/28 13:20:40;;;;;;;3.40;1.83;;;21.10;39.00;;;;;;4972651;28;20525;-82
2023/03/28 13:23:16;;;;;;;4.17;2.00;;;21.00;38.90;;;;;;4992765;28;20448;-83
2023/03/28 13:25:58;;;;;;;2.60;1.50;;;20.70;38.10;;;;;;5005573;28;20918;-82
2023/03/28 13:35:37;;;;;;;2.03;1.50;;;21.30;41.70;;;;;;4986387;28;20439;-83
2023/03/28 13:37:54;;;;;;;5.13;1.97;;;21.70;44.20;;;;;;4991246;28;20487;-85
2023/03/28 13:44:42;;;;;;;6.20;1.90;;;22.40;46.20;;;;;;5003349;28;20543;-82
2023/03/28 13:47:18;;;;;;;5.30;1.87;;;22.10;45.00;;;;;;4995746;28;21085;-83
2023/03/28 13:50:16;;;;;;;4.50;2.00;;;21.90;43.80;;;;;;4988095;28;20452;-85
2023/03/28 13:52:59;;;;;;;3.13;1.80;;;22.00;44.50;;;;;;4981013;28;20464;-84
2023/03/28 14:03:19;;;;;;;8.13;2.20;;;22.10;45.60;;;;;;4981862;28;20504;-84
2023/03/28 14:06:25;;;;;;;4.67;2.17;;;22.10;46.20;;;;;;4961786;28;20420;-83
2023/03/28 14:10:03;;;;;;;6.17;2.17;;;22.20;46.80;;;;;;4984160;28;20454;-84
2023/03/28 14:13:07;;;;;;;4.10;2.00;;;22.30;47.10;;;;;;4933442;29;20434;-85
2023/03/28 14:16:04;;;;;;;3.40;1.70;;;22.20;46.80;;;;;;4988580;28;21185;-83
2023/03/28 14:19:18;;;;;;;5.93;3.47;;;21.80;45.30;;;;;;5001691;28;20901;-84
2023/03/28 14:25:07;;;;;;;4.17;2.60;;;20.70;40.70;;;;;;5046843;23;20519;-83
2023/03/28 14:31:40;;;;;;;5.23;1.73;;;20.00;38.10;;;;;;5003895;28;20443;-83
2023/03/28 14:38:21;;;;;;;6.77;2.83;;;19.00;36.00;;;;;;5004642;28;20465;-83
2023/03/28 14:40:49;;;;;;;3.90;2.00;;;18.60;34.50;;;;;;4998380;28;20460;-82
2023/03/28 14:43:48;;;;;;;3.50;2.00;;;18.20;32.90;;;;;;5005534;28;20516;-83
2023/03/28 14:47:01;;;;;;;;;;;;;;;;;;;;;
2023/03/28 14:50:00;;;;;;;7.10;4.07;;;17.50;32.20;;;;;;5000181;28;20467;-85
2023/03/28 14:53:25;;;;;;;;;;;;;;;;;;;;;
2023/03/28 14:56:16;;;;;;;10.10;6.20;;;17.10;32.20;;;;;;4955327;28;20483;-84
2023/03/28 14:59:19;;;;;;;;;;;;;;;;;;;;;
2023/03/28 15:02:18;;;;;;;5.80;2.47;;;16.80;32.80;;;;;;4984076;28;20463;-85
2023/03/28 15:05:31;;;;;;;;;;;;;;;;;;;;;
2023/03/28 15:08:12;;;;;;;3.40;1.53;;;17.00;35.40;;;;;;4955307;29;20908;-85
2023/03/28 15:11:44;;;;;;;4.07;1.60;;;17.20;36.40;;;;;;4975971;28;20427;-82
2023/03/28 15:14:42;;;;;;;17.87;9.57;;;17.30;38.30;;;;;;4957741;28;20457;-82
2023/03/28 15:21:05;;;;;;;8.43;3.93;;;17.20;39.10;;;;;;4953577;28;20981;-83
2023/03/28 15:23:58;;;;;;;4.50;3.30;;;17.20;39.00;;;;;;4940042;29;20457;-82
2023/03/28 15:29:44;;;;;;;5.77;3.63;;;17.00;38.30;;;;;;4953427;28;20945;-82
2023/03/28 15:32:15;;;;;;;3.10;1.73;;;16.90;38.80;;;;;;4966992;28;21020;-84
2023/03/28 15:35:05;;;;;;;4.70;1.60;;;16.70;38.50;;;;;;4966412;28;20568;-83
2023/03/28 15:38:27;;;;;;;5.63;2.53;;;16.60;38.00;;;;;;4940833;28;20447;-82
2023/03/28 15:44:51;;;;;;;;;;;;;;;;;;;;;
2023/03/28 15:47:34;;;;;;;4.23;2.10;;;16.40;38.30;;;;;;4964191;28;20456;-83
2023/03/28 15:51:16;;;;;;;;;;;;;;;;;;;;;
2023/03/28 15:54:01;;;;;;;;;;;;;;;;;;;;;
2023/03/28 15:57:05;;;;;;;4.50;1.97;;;16.00;40.30;;;;;;4964339;28;20544;-83
2023/03/28 16:06:24;;;;;;;80.10;28.92;;;16.10;42.20;;;;;;4899591;28;20475;-84
2023/03/28 16:12:23;;;;;;;5.70;2.27;;;16.30;44.70;;;;;;4946076;28;20460;-85
2023/03/28 16:15:10;;;;;;;7.90;2.80;;;16.20;56.80;;;;;;4967944;28;20448;-84
2023/03/28 16:18:02;;;;;;;7.90;2.03;;;16.20;44.30;;;;;;4955213;28;20441;-83
2023/03/28 16:23:36;;;;;;;3.43;2.07;;;15.70;43.20;;;;;;4946495;28;21291;-85
2023/03/28 16:26:14;;;;;;;3.47;2.20;;;15.30;41.90;;;;;;4962575;28;20493;-84
2023/03/28 16:32:41;;;;;;;4.73;1.90;;;14.80;40.30;;;;;;4921662;29;20551;-85
2023/03/28 16:35:33;;;;;;;5.13;2.30;;;14.50;40.10;;;;;;4960071;28;20506;-85
2023/03/28 16:41:56;;;;;;;5.10;2.53;;;14.10;39.90;;;;;;4956612;28;20442;-84
2023/03/28 16:45:03;;;;;;;;;;;;;;;;;;;;;
2023/03/28 16:47:52;;;;;;;6.50;2.80;;;13.90;39.80;;;;;;4952869;28;20869;-84
2023/03/28 16:50:50;;;;;;;3.97;2.10;;;13.70;39.80;;;;;;4963229;28;20471;-85
2023/03/28 16:53:41;;;;;;;7.20;2.10;;;13.60;40.00;;;;;;4965054;28;20483;-85
2023/03/28 16:56:32;;;;;;;3.23;1.63;;;13.40;40.80;;;;;;4958513;28;20456;-84